createdAt,value
2023-05-19T00:00:32.060Z,2.50
2023-05-19T00:06:37.491Z,2.60
2023-05-19T00:12:40.558Z,2.38
2023-05-19T00:18:44.093Z,2.58
2023-05-19T00:24:47.605Z,2.60
2023-05-19T00:30:57.785Z,3.15
2023-05-19T00:36:59.975Z,2.17
2023-05-19T00:43:03.994Z,2.28
2023-05-19T00:49:07.118Z,2.15
2023-05-19T00:55:12.024Z,2.10
2023-05-19T01:01:18.216Z,2.15
2023-05-19T01:15:30.250Z,2.20
2023-05-19T01:21:58.332Z,2.00
2023-05-19T01:28:42.652Z,2.00
2023-05-19T01:34:49.801Z,2.43
2023-05-19T01:40:55.569Z,2.28
2023-05-19T01:47:00.485Z,1.90
2023-05-19T01:53:03.927Z,2.20
2023-05-19T01:59:33.415Z,2.08
2023-05-19T02:06:11.544Z,2.47
2023-05-19T02:12:21.853Z,2.20
2023-05-19T02:18:25.801Z,2.63
2023-05-19T02:24:27.983Z,2.37
2023-05-19T02:30:32.899Z,2.25
2023-05-19T02:36:40.294Z,2.20
2023-05-19T02:42:43.966Z,2.17
2023-05-19T02:48:47.613Z,1.80
2023-05-19T02:54:50.276Z,2.20
2023-05-19T03:00:53.796Z,2.40
2023-05-19T03:06:57.265Z,2.17
2023-05-19T03:13:01.601Z,2.80
2023-05-19T03:19:03.981Z,2.10
2023-05-19T03:25:07.785Z,2.10
2023-05-19T03:31:11.534Z,2.47
2023-05-19T03:37:14.278Z,2.20
2023-05-19T03:43:19.713Z,2.13
2023-05-19T03:49:23.872Z,2.38
2023-05-19T03:55:32.158Z,2.47
2023-05-19T04:01:35.625Z,2.50
2023-05-19T04:07:38.463Z,2.42
2023-05-19T04:13:41.691Z,2.65
2023-05-19T04:19:44.328Z,2.20
2023-05-19T04:25:49.704Z,2.70
2023-05-19T04:31:53.561Z,2.30
2023-05-19T04:37:57.351Z,2.17
2023-05-19T04:44:00.303Z,2.50
2023-05-19T04:50:03.678Z,2.20
2023-05-19T04:56:07.913Z,2.35
2023-05-19T05:02:11.665Z,2.15
2023-05-19T05:08:15.618Z,1.85
2023-05-19T05:14:19.911Z,2.17
2023-05-19T05:20:23.815Z,1.98
2023-05-19T05:26:32.720Z,2.13
2023-05-19T05:32:37.624Z,2.45
2023-05-19T05:38:41.378Z,2.20
2023-05-19T05:44:43.937Z,2.40
2023-05-19T05:50:48.463Z,2.10
2023-05-19T05:56:51.757Z,2.30
2023-05-19T06:02:55.626Z,2.50
2023-05-19T06:08:59.264Z,2.42
2023-05-19T06:15:03.746Z,2.40
2023-05-19T06:27:11.775Z,2.63
2023-05-19T06:33:15.512Z,2.20
2023-05-19T06:39:18.206Z,2.55
2023-05-19T06:45:23.578Z,2.38
2023-05-19T06:51:26.821Z,2.33
2023-05-19T06:57:30.649Z,2.30
2023-05-19T07:03:34.793Z,2.63
2023-05-19T07:09:38.362Z,2.10
2023-05-19T07:15:41.039Z,2.10
2023-05-19T07:21:45.804Z,2.33
2023-05-19T07:27:48.802Z,2.72
2023-05-19T07:33:54.511Z,2.78
2023-05-19T07:39:58.967Z,2.47
2023-05-19T07:46:02.594Z,2.28
2023-05-19T07:52:08.516Z,2.20
2023-05-19T07:58:10.793Z,2.30
2023-05-19T08:04:14.587Z,2.53
2023-05-19T08:10:18.390Z,2.20
2023-05-19T08:16:22.433Z,2.22
2023-05-19T08:28:28.353Z,2.75
2023-05-19T08:34:31.023Z,2.88
2023-05-19T08:40:36.312Z,1.95
2023-05-19T08:46:40.528Z,3.13
2023-05-19T08:53:15.256Z,2.10
2023-05-19T08:59:24.545Z,2.50
2023-05-19T09:05:26.921Z,3.03
2023-05-19T09:11:30.679Z,2.58
2023-05-19T09:17:33.697Z,2.35
2023-05-19T09:23:37.198Z,1.90
2023-05-19T09:29:40.619Z,1.92
2023-05-19T09:35:48.742Z,2.20
2023-05-19T09:41:56.836Z,2.50
2023-05-19T09:48:05.525Z,1.88
2023-05-19T09:54:11.352Z,1.60
2023-05-19T10:00:15.356Z,2.05
2023-05-19T10:06:18.923Z,1.60
2023-05-19T10:12:22.735Z,2.05
2023-05-19T10:18:28.116Z,1.67
2023-05-19T10:24:31.918Z,2.05
2023-05-19T10:30:42.182Z,1.70
2023-05-19T10:37:10.151Z,1.80
2023-05-19T10:43:25.993Z,1.65
2023-05-19T10:49:29.184Z,1.60
2023-05-19T10:55:56.808Z,1.37
2023-05-19T11:02:08.319Z,1.45
2023-05-19T11:08:13.618Z,1.20
2023-05-19T11:14:22.086Z,1.10
2023-05-19T11:20:30.840Z,1.40
2023-05-19T11:26:44.169Z,1.30
2023-05-19T11:32:48.997Z,1.40
2023-05-19T11:38:52.596Z,1.08
2023-05-19T11:44:58.193Z,1.33
2023-05-19T11:51:03.498Z,1.30
2023-05-19T11:57:09.866Z,1.33
2023-05-19T12:03:15.188Z,1.40
2023-05-19T12:09:18.874Z,1.30
2023-05-19T12:15:23.370Z,1.60
2023-05-19T12:21:34.281Z,1.67
2023-05-19T12:27:39.033Z,1.15
2023-05-19T12:33:42.690Z,1.30
2023-05-19T12:39:47.043Z,1.40
2023-05-19T12:45:51.171Z,1.25
2023-05-19T12:52:07.148Z,1.33
2023-05-19T12:58:15.589Z,1.27
2023-05-19T13:04:18.999Z,1.30
2023-05-19T13:10:22.364Z,1.35
2023-05-19T13:16:24.756Z,1.05
2023-05-19T13:22:27.159Z,1.30
2023-05-19T13:28:30.533Z,1.17
2023-05-19T13:34:33.342Z,1.20
2023-05-19T13:40:37.210Z,1.20
2023-05-19T13:46:45.832Z,1.45
2023-05-19T13:52:49.155Z,1.40
2023-05-19T13:58:52.359Z,1.23
2023-05-19T14:04:58.398Z,1.25
2023-05-19T14:11:02.285Z,0.88
2023-05-19T14:23:09.919Z,1.07
2023-05-19T14:35:16.346Z,1.30
2023-05-19T14:41:20.019Z,1.40
2023-05-19T14:47:23.537Z,1.10
2023-05-19T14:53:28.165Z,1.30
2023-05-19T14:59:32.222Z,1.02
2023-05-19T15:05:36.252Z,1.10
2023-05-19T15:11:39.294Z,1.17
2023-05-19T15:17:41.981Z,1.00
2023-05-19T15:23:46.833Z,1.08
2023-05-19T15:29:49.393Z,1.33
2023-05-19T15:35:53.524Z,1.10
2023-05-19T15:41:57.086Z,1.10
2023-05-19T15:48:00.610Z,0.90
2023-05-19T15:54:03.007Z,1.15
2023-05-19T16:00:07.270Z,1.35
2023-05-19T16:06:09.628Z,1.00
2023-05-19T16:12:11.808Z,1.20
2023-05-19T16:18:14.049Z,1.23
2023-05-19T16:24:16.928Z,0.98
2023-05-19T16:30:24.545Z,1.08
2023-05-19T16:36:27.648Z,0.82
2023-05-19T16:42:33.330Z,1.10
2023-05-19T16:48:35.972Z,0.90
2023-05-19T16:54:39.214Z,1.00
2023-05-19T17:00:41.573Z,0.88
2023-05-19T17:06:46.907Z,1.00
2023-05-19T17:12:50.078Z,1.00
2023-05-19T17:18:53.271Z,0.93
2023-05-19T17:24:55.831Z,1.15
2023-05-19T17:30:59.490Z,1.05
2023-05-19T17:37:03.192Z,1.10
2023-05-19T17:43:07.118Z,0.98
2023-05-19T18:01:25.350Z,1.00
2023-05-19T18:07:29.577Z,1.10
2023-05-19T18:13:40.615Z,1.20
2023-05-19T18:19:43.688Z,1.08
2023-05-19T18:25:53.662Z,1.40
2023-05-19T18:31:59.455Z,1.08
2023-05-19T18:38:03.260Z,1.10
2023-05-19T18:44:09.357Z,1.20
2023-05-19T18:50:11.878Z,0.98
2023-05-19T18:56:17.509Z,1.30
2023-05-19T19:02:21.165Z,1.10
2023-05-19T19:08:25.809Z,1.00
2023-05-19T19:14:29.270Z,0.93
2023-05-19T19:20:31.571Z,1.08
2023-05-19T19:26:35.585Z,1.50
2023-05-19T19:32:39.120Z,1.98
2023-05-19T19:38:41.789Z,1.10
2023-05-19T19:44:45.435Z,1.15
2023-05-19T19:50:53.475Z,1.40
2023-05-19T19:56:56.683Z,1.48
2023-05-19T20:03:04.965Z,1.50
2023-05-19T20:09:09.007Z,1.40
2023-05-19T20:15:11.529Z,1.30
2023-05-19T20:21:15.010Z,1.23
2023-05-19T20:27:17.571Z,1.37
2023-05-19T20:33:20.274Z,1.38
2023-05-19T20:39:23.448Z,1.58
2023-05-19T20:45:27.237Z,1.57
2023-05-19T20:51:29.685Z,1.20
2023-05-19T20:57:33.605Z,1.27
2023-05-19T21:03:40.804Z,1.42
2023-05-19T21:09:47.504Z,1.50
2023-05-19T21:15:50.239Z,1.33
2023-05-19T21:21:53.159Z,1.35
2023-05-19T21:27:56.961Z,1.70
2023-05-19T21:34:00.721Z,1.30
2023-05-19T21:40:03.662Z,1.33
2023-05-19T21:46:06.935Z,1.60
2023-05-19T21:52:10.806Z,1.90
2023-05-19T21:58:14.287Z,1.50
2023-05-19T22:04:23.088Z,1.20
2023-05-19T22:10:26.382Z,1.52
2023-05-19T22:16:28.886Z,1.50
2023-05-19T22:22:32.406Z,1.38
2023-05-19T22:28:35.504Z,1.40
2023-05-19T22:34:39.606Z,1.60
2023-05-19T22:40:43.990Z,1.60
2023-05-19T22:46:46.731Z,1.42
2023-05-19T22:52:49.932Z,1.45
2023-05-19T22:58:53.619Z,1.50
2023-05-19T23:04:56.462Z,1.50
2023-05-19T23:11:03.286Z,1.35
2023-05-19T23:17:06.515Z,1.52
2023-05-19T23:23:09.943Z,1.40
2023-05-19T23:29:15.413Z,1.20
2023-05-19T23:35:19.655Z,1.20
2023-05-19T23:47:26.000Z,1.30
2023-05-19T23:53:29.260Z,1.20
2023-05-19T23:59:31.663Z,1.50
